createdAt,value
2023-07-29T00:00:14.521Z,16.50
2023-07-29T00:02:43.879Z,16.49
2023-07-29T00:05:11.618Z,16.49
2023-07-29T00:07:39.211Z,16.52
2023-07-29T00:10:07.821Z,16.50
2023-07-29T00:12:35.513Z,16.50
2023-07-29T00:15:03.250Z,16.53
2023-07-29T00:17:32.598Z,16.52
2023-07-29T00:20:00.304Z,16.53
2023-07-29T00:22:27.935Z,16.54
2023-07-29T00:24:56.539Z,16.56
2023-07-29T00:27:24.558Z,16.54
2023-07-29T00:29:52.807Z,16.54
2023-07-29T00:32:20.454Z,16.53
2023-07-29T00:34:48.077Z,16.57
2023-07-29T00:37:15.733Z,16.54
2023-07-29T00:39:43.680Z,16.54
2023-07-29T00:42:11.360Z,16.52
2023-07-29T00:44:39.050Z,16.54
2023-07-29T00:47:08.406Z,16.53
2023-07-29T00:49:36.942Z,16.49
2023-07-29T00:52:05.545Z,16.47
2023-07-29T00:54:33.323Z,16.46
2023-07-29T00:57:01.058Z,16.43
2023-07-29T00:59:30.298Z,16.42
2023-07-29T01:01:58.348Z,16.36
2023-07-29T01:04:26.065Z,16.39
2023-07-29T01:07:05.001Z,16.42
2023-07-29T01:09:42.225Z,16.36
2023-07-29T01:12:25.066Z,16.37
2023-07-29T01:14:57.291Z,16.43
2023-07-29T01:17:31.673Z,16.52
2023-07-29T01:20:04.455Z,16.59
2023-07-29T01:22:34.795Z,16.61
2023-07-29T01:25:03.014Z,16.54
2023-07-29T01:27:32.089Z,16.52
2023-07-29T01:30:00.496Z,16.56
2023-07-29T01:32:37.365Z,16.57
2023-07-29T01:35:11.381Z,16.59
2023-07-29T01:37:41.034Z,16.64
2023-07-29T01:40:10.590Z,16.65
2023-07-29T01:42:38.961Z,16.68
2023-07-29T01:45:06.975Z,16.68
2023-07-29T01:47:34.594Z,16.71
2023-07-29T01:50:02.339Z,16.74
2023-07-29T01:52:31.337Z,16.75
2023-07-29T01:54:59.029Z,16.78
2023-07-29T01:57:26.758Z,16.80
2023-07-29T01:59:54.349Z,16.81
2023-07-29T02:02:24.362Z,16.85
2023-07-29T02:04:53.405Z,16.84
2023-07-29T02:07:21.143Z,16.82
2023-07-29T02:09:48.837Z,16.80
2023-07-29T02:12:16.397Z,16.73
2023-07-29T02:14:44.393Z,16.70
2023-07-29T02:17:12.246Z,16.77
2023-07-29T02:19:39.869Z,16.81
2023-07-29T02:22:07.695Z,16.84
2023-07-29T02:24:35.401Z,16.84
2023-07-29T02:27:03.088Z,16.85
2023-07-29T02:29:31.808Z,16.85
2023-07-29T02:31:59.561Z,16.87
2023-07-29T02:34:27.216Z,16.85
2023-07-29T02:36:54.926Z,16.85
2023-07-29T02:39:24.598Z,16.87
2023-07-29T02:41:53.317Z,16.85
2023-07-29T02:44:21.444Z,16.91
2023-07-29T02:46:49.121Z,16.96
2023-07-29T02:49:16.861Z,17.01
2023-07-29T02:51:44.451Z,17.07
2023-07-29T02:54:12.011Z,17.08
2023-07-29T02:56:39.795Z,17.12
2023-07-29T02:59:07.530Z,17.20
2023-07-29T03:01:35.605Z,17.18
2023-07-29T03:04:03.356Z,17.22
2023-07-29T03:06:32.417Z,17.19
2023-07-29T03:09:00.053Z,17.16
2023-07-29T03:11:27.742Z,17.09
2023-07-29T03:13:55.354Z,17.04
2023-07-29T03:16:24.125Z,17.05
2023-07-29T03:18:52.076Z,17.08
2023-07-29T03:21:19.867Z,17.12
2023-07-29T03:23:47.505Z,17.22
2023-07-29T03:26:15.166Z,17.28
2023-07-29T03:28:45.343Z,17.32
2023-07-29T03:31:13.222Z,17.40
2023-07-29T03:33:40.910Z,17.59
2023-07-29T03:36:08.730Z,17.78
2023-07-29T03:38:41.187Z,17.94
2023-07-29T03:41:10.231Z,18.05
2023-07-29T03:43:37.913Z,18.12
2023-07-29T03:46:08.405Z,18.11
2023-07-29T03:48:37.762Z,18.08
2023-07-29T03:51:05.499Z,18.11
2023-07-29T03:53:33.112Z,18.09
2023-07-29T03:56:01.021Z,18.06
2023-07-29T03:58:29.112Z,18.04
2023-07-29T04:00:57.742Z,18.08
2023-07-29T04:03:25.551Z,18.18
2023-07-29T04:05:53.241Z,18.30
2023-07-29T04:08:20.974Z,18.42
2023-07-29T04:10:49.632Z,18.49
2023-07-29T04:13:17.211Z,18.57
2023-07-29T04:15:47.356Z,18.64
2023-07-29T04:18:15.073Z,18.66
2023-07-29T04:20:42.739Z,18.68
2023-07-29T04:23:10.557Z,18.78
2023-07-29T04:25:38.298Z,18.88
2023-07-29T04:28:06.612Z,18.97
2023-07-29T04:30:34.486Z,19.05
2023-07-29T04:33:02.377Z,19.16
2023-07-29T04:35:30.321Z,19.31
2023-07-29T04:37:58.017Z,19.43
2023-07-29T04:40:25.769Z,19.45
2023-07-29T04:42:53.583Z,19.50
2023-07-29T04:45:21.587Z,19.55
2023-07-29T04:47:49.331Z,19.59
2023-07-29T04:50:18.261Z,19.62
2023-07-29T04:52:45.995Z,19.62
2023-07-29T04:55:13.655Z,19.67
2023-07-29T04:57:41.595Z,19.67
2023-07-29T05:00:09.798Z,19.73
2023-07-29T05:02:37.548Z,19.86
2023-07-29T05:05:05.858Z,20.00
2023-07-29T05:07:34.064Z,20.05
2023-07-29T05:10:01.730Z,20.14
2023-07-29T05:12:34.076Z,20.21
2023-07-29T05:15:01.847Z,20.22
2023-07-29T05:17:30.150Z,20.20
2023-07-29T05:20:00.049Z,20.18
2023-07-29T05:22:27.810Z,20.26
2023-07-29T05:24:57.568Z,20.29
2023-07-29T05:27:28.326Z,20.32
2023-07-29T05:29:56.052Z,20.40
2023-07-29T05:32:23.965Z,20.52
2023-07-29T05:34:51.498Z,20.67
2023-07-29T05:37:19.075Z,20.90
2023-07-29T05:39:46.945Z,21.10
2023-07-29T05:42:14.623Z,21.20
2023-07-29T05:44:42.381Z,21.31
2023-07-29T05:47:10.869Z,21.38
2023-07-29T05:49:38.828Z,21.45
2023-07-29T05:52:06.833Z,21.35
2023-07-29T05:54:35.008Z,21.28
2023-07-29T05:57:02.801Z,21.20
2023-07-29T05:59:32.739Z,21.12
2023-07-29T06:02:02.684Z,21.04
2023-07-29T06:04:31.456Z,20.97
2023-07-29T06:06:59.248Z,21.05
2023-07-29T06:09:26.937Z,21.07
2023-07-29T06:11:55.916Z,21.03
2023-07-29T06:14:24.044Z,20.98
2023-07-29T06:16:51.738Z,21.00
2023-07-29T06:19:21.874Z,21.10
2023-07-29T06:21:49.990Z,21.24
2023-07-29T06:24:19.930Z,21.35
2023-07-29T06:26:47.552Z,21.48
2023-07-29T06:29:15.298Z,21.59
2023-07-29T06:31:42.998Z,21.66
2023-07-29T06:34:10.662Z,21.69
2023-07-29T06:36:38.721Z,21.73
2023-07-29T06:39:06.965Z,21.72
2023-07-29T06:41:34.674Z,21.79
2023-07-29T06:44:02.469Z,21.80
2023-07-29T06:46:30.262Z,21.77
2023-07-29T06:48:58.209Z,21.79
2023-07-29T06:51:25.869Z,21.67
2023-07-29T06:53:53.654Z,21.59
2023-07-29T06:56:21.272Z,21.52
2023-07-29T06:58:49.056Z,21.45
2023-07-29T07:01:16.783Z,21.43
2023-07-29T07:03:44.714Z,21.46
2023-07-29T07:06:12.440Z,21.58
2023-07-29T07:08:44.905Z,21.65
2023-07-29T07:11:12.603Z,21.75
2023-07-29T07:13:40.232Z,21.77
2023-07-29T07:16:08.073Z,21.86
2023-07-29T07:18:35.949Z,21.90
2023-07-29T07:21:03.562Z,21.94
2023-07-29T07:23:32.204Z,21.98
2023-07-29T07:25:59.940Z,22.05
2023-07-29T07:28:27.810Z,22.13
2023-07-29T07:30:57.080Z,22.18
2023-07-29T07:33:24.990Z,22.15
2023-07-29T07:35:52.737Z,22.11
2023-07-29T07:38:23.375Z,22.10
2023-07-29T07:40:58.553Z,22.05
2023-07-29T07:43:26.325Z,22.11
2023-07-29T07:46:06.857Z,22.15
2023-07-29T07:48:34.863Z,22.17
2023-07-29T07:51:11.758Z,22.20
2023-07-29T07:53:39.676Z,22.18
2023-07-29T07:56:08.337Z,22.22
2023-07-29T07:58:37.234Z,22.30
2023-07-29T08:01:09.097Z,22.37
2023-07-29T08:03:37.495Z,22.45
2023-07-29T08:06:07.111Z,22.49
2023-07-29T08:08:36.628Z,22.53
2023-07-29T08:11:04.303Z,22.62
2023-07-29T08:13:31.982Z,22.63
2023-07-29T08:15:59.678Z,22.70
2023-07-29T08:18:27.344Z,22.68
2023-07-29T08:20:56.833Z,22.58
2023-07-29T08:23:24.406Z,22.52
2023-07-29T08:25:57.589Z,22.48
2023-07-29T08:28:25.442Z,22.42
2023-07-29T08:30:53.248Z,22.41
2023-07-29T08:33:20.916Z,22.47
2023-07-29T08:35:48.651Z,22.51
2023-07-29T08:38:17.717Z,22.59
2023-07-29T08:40:58.493Z,22.60
2023-07-29T08:43:33.868Z,22.52
2023-07-29T08:46:02.213Z,22.41
2023-07-29T08:48:41.541Z,22.30
2023-07-29T08:51:13.450Z,22.15
2023-07-29T08:53:41.508Z,22.10
2023-07-29T08:56:09.551Z,22.08
2023-07-29T08:58:38.023Z,22.03
2023-07-29T09:01:05.761Z,21.96
2023-07-29T09:03:33.805Z,21.85
2023-07-29T09:06:03.824Z,21.73
2023-07-29T09:08:31.555Z,21.65
2023-07-29T09:10:59.372Z,21.50
2023-07-29T09:13:27.128Z,21.49
2023-07-29T09:15:59.398Z,21.46
2023-07-29T09:18:28.297Z,21.45
2023-07-29T09:21:02.344Z,21.55
2023-07-29T09:23:30.216Z,21.60
2023-07-29T09:26:04.723Z,21.65
2023-07-29T09:28:37.204Z,21.75
2023-07-29T09:31:05.446Z,21.86
2023-07-29T09:33:38.140Z,21.98
2023-07-29T09:36:12.103Z,22.13
2023-07-29T09:38:41.013Z,22.15
2023-07-29T09:41:08.909Z,22.21
2023-07-29T09:43:36.916Z,22.20
2023-07-29T09:46:06.431Z,22.20
2023-07-29T09:48:35.646Z,22.17
2023-07-29T09:51:14.267Z,22.11
2023-07-29T09:53:47.608Z,22.05
2023-07-29T09:56:16.804Z,21.98
2023-07-29T09:58:47.302Z,21.98
2023-07-29T10:01:15.711Z,21.94
2023-07-29T10:03:45.619Z,21.90
2023-07-29T10:06:15.712Z,21.86
2023-07-29T10:08:44.652Z,21.75
2023-07-29T10:11:13.020Z,21.79
2023-07-29T10:13:40.876Z,21.76
2023-07-29T10:16:08.896Z,21.75
2023-07-29T10:18:36.570Z,21.73
2023-07-29T10:21:04.744Z,21.73
2023-07-29T10:23:38.582Z,21.72
2023-07-29T10:26:09.377Z,21.69
2023-07-29T10:28:41.348Z,21.66
2023-07-29T10:31:11.102Z,21.66
2023-07-29T10:33:39.361Z,21.66
2023-07-29T10:36:07.386Z,21.62
2023-07-29T10:38:35.316Z,21.56
2023-07-29T10:41:03.033Z,21.55
2023-07-29T10:43:36.012Z,21.48
2023-07-29T10:46:24.103Z,21.49
2023-07-29T10:48:51.820Z,21.43
2023-07-29T10:51:37.678Z,21.45
2023-07-29T10:54:12.206Z,21.48
2023-07-29T10:56:44.425Z,21.48
2023-07-29T10:59:18.006Z,21.50
2023-07-29T11:02:09.969Z,21.49
2023-07-29T11:04:48.416Z,21.48
2023-07-29T11:07:19.185Z,21.46
2023-07-29T11:09:49.992Z,21.50
2023-07-29T11:12:37.951Z,21.48
2023-07-29T11:15:14.736Z,21.41
2023-07-29T11:18:02.410Z,21.41
2023-07-29T11:20:39.183Z,21.31
2023-07-29T11:23:07.306Z,21.34
2023-07-29T11:25:35.220Z,21.46
2023-07-29T11:28:05.785Z,21.65
2023-07-29T11:30:35.468Z,21.83
2023-07-29T11:33:06.465Z,21.97
2023-07-29T11:35:34.751Z,22.07
2023-07-29T11:38:02.394Z,22.10
2023-07-29T11:40:30.406Z,22.10
2023-07-29T11:42:57.973Z,22.03
2023-07-29T11:45:38.650Z,21.98
2023-07-29T11:48:19.798Z,21.87
2023-07-29T11:50:48.119Z,21.79
2023-07-29T11:53:17.519Z,21.69
2023-07-29T11:55:45.505Z,21.63
2023-07-29T11:58:13.203Z,21.50
2023-07-29T12:00:41.251Z,21.48
2023-07-29T12:03:11.265Z,21.38
2023-07-29T12:05:39.329Z,21.35
2023-07-29T12:08:07.169Z,21.38
2023-07-29T12:10:35.605Z,21.38
2023-07-29T12:13:04.741Z,21.38
2023-07-29T12:15:32.432Z,21.42
2023-07-29T12:18:01.783Z,21.39
2023-07-29T12:20:31.457Z,21.32
2023-07-29T12:23:04.127Z,21.25
2023-07-29T12:25:32.261Z,21.15
2023-07-29T12:28:09.199Z,21.18
2023-07-29T12:30:43.661Z,21.22
2023-07-29T12:33:11.725Z,21.30
2023-07-29T12:35:39.939Z,21.35
2023-07-29T12:38:07.807Z,21.41
2023-07-29T12:40:40.159Z,21.39
2023-07-29T12:43:07.855Z,21.42
2023-07-29T12:45:41.397Z,21.39
2023-07-29T12:48:10.463Z,21.28
2023-07-29T12:50:39.932Z,21.30
2023-07-29T12:53:09.238Z,21.31
2023-07-29T12:55:37.107Z,21.32
2023-07-29T12:58:05.046Z,21.35
2023-07-29T13:00:32.851Z,21.35
2023-07-29T13:03:00.702Z,21.32
2023-07-29T13:05:28.501Z,21.37
2023-07-29T13:07:56.040Z,21.39
2023-07-29T13:10:23.794Z,21.46
2023-07-29T13:12:51.371Z,21.56
2023-07-29T13:15:18.954Z,21.69
2023-07-29T13:17:46.634Z,21.80
2023-07-29T13:20:14.262Z,21.83
2023-07-29T13:22:41.927Z,21.94
2023-07-29T13:25:09.603Z,22.01
2023-07-29T13:27:37.431Z,22.13
2023-07-29T13:30:06.036Z,22.31
2023-07-29T13:32:33.964Z,22.48
2023-07-29T13:35:01.654Z,22.72
2023-07-29T13:37:31.617Z,23.02
2023-07-29T13:39:59.398Z,23.21
2023-07-29T13:42:27.442Z,23.38
2023-07-29T13:44:56.217Z,23.51
2023-07-29T13:47:23.913Z,23.78
2023-07-29T13:49:51.567Z,24.16
2023-07-29T13:52:19.177Z,24.47
2023-07-29T13:54:46.918Z,24.72
2023-07-29T13:57:14.622Z,25.00
2023-07-29T13:59:42.270Z,25.58
2023-07-29T14:02:11.037Z,26.30
2023-07-29T14:04:42.162Z,26.95
2023-07-29T14:07:13.171Z,27.53
2023-07-29T14:09:42.049Z,27.72
2023-07-29T14:12:13.601Z,27.42
2023-07-29T14:14:41.314Z,27.19
2023-07-29T14:17:12.235Z,26.96
2023-07-29T14:19:39.949Z,26.71
2023-07-29T14:22:07.752Z,26.41
2023-07-29T14:24:36.484Z,26.45
2023-07-29T14:27:04.635Z,26.45
2023-07-29T14:29:32.394Z,26.50
2023-07-29T14:32:00.231Z,26.85
2023-07-29T14:34:27.841Z,27.25
2023-07-29T14:36:57.807Z,27.39
2023-07-29T14:39:25.621Z,27.33
2023-07-29T14:41:53.315Z,27.12
2023-07-29T14:44:21.078Z,27.08
2023-07-29T14:46:49.201Z,27.00
2023-07-29T14:49:16.883Z,26.84
2023-07-29T14:51:45.117Z,26.78
2023-07-29T14:54:12.780Z,26.71
2023-07-29T14:56:40.371Z,26.70
2023-07-29T14:59:08.001Z,26.57
2023-07-29T15:01:35.888Z,26.44
2023-07-29T15:04:03.740Z,26.20
2023-07-29T15:06:31.595Z,26.03
2023-07-29T15:08:59.466Z,25.75
2023-07-29T15:11:27.064Z,25.50
2023-07-29T15:13:54.812Z,25.35
2023-07-29T15:16:25.636Z,25.22
2023-07-29T15:18:53.714Z,24.96
2023-07-29T15:21:21.574Z,24.79
2023-07-29T15:23:49.246Z,24.60
2023-07-29T15:26:16.895Z,24.47
2023-07-29T15:28:44.533Z,24.35
2023-07-29T15:31:14.676Z,24.16
2023-07-29T15:33:42.605Z,23.97
2023-07-29T15:36:10.233Z,23.83
2023-07-29T15:38:37.962Z,23.78
2023-07-29T15:41:05.737Z,23.72
2023-07-29T15:43:33.474Z,23.76
2023-07-29T15:46:01.501Z,23.89
2023-07-29T15:48:29.508Z,23.85
2023-07-29T15:50:57.161Z,23.92
2023-07-29T15:53:26.266Z,23.87
2023-07-29T15:55:53.942Z,23.63
2023-07-29T15:58:21.681Z,23.38
2023-07-29T16:00:49.317Z,23.20
2023-07-29T16:03:17.111Z,23.10
2023-07-29T16:05:47.887Z,23.10
2023-07-29T16:08:15.944Z,23.00
2023-07-29T16:10:43.665Z,22.86
2023-07-29T16:13:11.552Z,22.76
2023-07-29T16:15:39.127Z,22.63
2023-07-29T16:18:06.805Z,22.41
2023-07-29T16:20:34.419Z,22.21
2023-07-29T16:23:02.044Z,22.04
2023-07-29T16:25:30.256Z,21.87
2023-07-29T16:27:58.481Z,21.67
2023-07-29T16:30:26.261Z,21.50
2023-07-29T16:32:53.924Z,21.31
2023-07-29T16:35:21.567Z,21.11
2023-07-29T16:37:51.361Z,20.98
2023-07-29T16:40:19.542Z,20.86
2023-07-29T16:42:47.375Z,20.79
2023-07-29T16:45:15.075Z,20.83
2023-07-29T16:47:42.801Z,20.87
2023-07-29T16:50:11.250Z,20.94
2023-07-29T16:52:39.313Z,21.05
2023-07-29T16:55:08.357Z,21.15
2023-07-29T16:57:36.149Z,21.24
2023-07-29T17:00:04.869Z,21.20
2023-07-29T17:02:35.336Z,21.08
2023-07-29T17:05:05.500Z,20.93
2023-07-29T17:07:33.376Z,20.76
2023-07-29T17:10:01.870Z,20.69
2023-07-29T17:12:31.651Z,20.55
2023-07-29T17:14:59.250Z,20.39
2023-07-29T17:17:26.918Z,20.31
2023-07-29T17:19:54.674Z,20.31
2023-07-29T17:22:22.385Z,20.53
2023-07-29T17:24:50.121Z,20.73
2023-07-29T17:27:17.731Z,20.95
2023-07-29T17:29:45.774Z,21.11
2023-07-29T17:32:13.466Z,21.25
2023-07-29T17:34:41.093Z,21.39
2023-07-29T17:37:08.680Z,21.39
2023-07-29T17:39:38.345Z,21.24
2023-07-29T17:42:07.784Z,21.05
2023-07-29T17:44:35.426Z,20.87
2023-07-29T17:47:03.129Z,20.80
2023-07-29T17:49:31.083Z,20.67
2023-07-29T17:51:58.840Z,20.59
2023-07-29T17:54:26.632Z,20.46
2023-07-29T17:56:54.328Z,20.32
2023-07-29T17:59:21.979Z,20.20
2023-07-29T18:01:50.705Z,20.10
2023-07-29T18:04:18.424Z,19.98
2023-07-29T18:06:46.027Z,19.88
2023-07-29T18:09:13.716Z,19.83
2023-07-29T18:11:43.050Z,19.71
2023-07-29T18:14:10.760Z,19.57
2023-07-29T18:16:42.469Z,19.48
2023-07-29T18:19:10.326Z,19.36
2023-07-29T18:21:37.984Z,19.26
2023-07-29T18:24:06.432Z,19.21
2023-07-29T18:26:35.114Z,19.14
2023-07-29T18:29:03.051Z,19.05
2023-07-29T18:31:30.789Z,18.98
2023-07-29T18:34:01.062Z,18.93
2023-07-29T18:36:31.437Z,18.88
2023-07-29T18:38:59.188Z,18.83
2023-07-29T18:41:28.074Z,18.76
2023-07-29T18:43:59.236Z,18.68
2023-07-29T18:46:31.205Z,18.57
2023-07-29T18:49:00.185Z,18.46
2023-07-29T18:51:28.145Z,18.33
2023-07-29T18:53:55.863Z,18.21
2023-07-29T18:56:23.800Z,18.11
2023-07-29T18:58:51.410Z,17.98
2023-07-29T19:01:19.063Z,17.85
2023-07-29T19:03:47.554Z,17.75
2023-07-29T19:06:15.559Z,17.71
2023-07-29T19:08:43.216Z,17.71
2023-07-29T19:11:11.697Z,17.69
2023-07-29T19:13:41.565Z,17.66
2023-07-29T19:16:10.966Z,17.59
2023-07-29T19:18:38.606Z,17.53
2023-07-29T19:21:08.243Z,17.45
2023-07-29T19:23:36.013Z,17.37
2023-07-29T19:26:03.802Z,17.33
2023-07-29T19:28:31.420Z,17.32
2023-07-29T19:30:59.395Z,17.32
2023-07-29T19:33:27.046Z,17.33
2023-07-29T19:35:56.778Z,17.35
2023-07-29T19:38:24.833Z,17.40
2023-07-29T19:40:52.702Z,17.42
2023-07-29T19:43:20.581Z,17.45
2023-07-29T19:46:11.657Z,17.43
2023-07-29T19:48:36.917Z,17.40
2023-07-29T19:51:04.587Z,17.40
2023-07-29T19:53:32.133Z,17.39
2023-07-29T19:56:00.097Z,17.43
2023-07-29T19:58:27.896Z,17.47
2023-07-29T20:00:55.710Z,17.47
2023-07-29T20:03:23.459Z,17.50
2023-07-29T20:05:51.148Z,17.50
2023-07-29T20:08:18.848Z,17.50
2023-07-29T20:10:47.514Z,17.50
2023-07-29T20:13:15.764Z,17.49
2023-07-29T20:15:43.485Z,17.47
2023-07-29T20:18:11.452Z,17.45
2023-07-29T20:20:39.106Z,17.42
2023-07-29T20:23:08.011Z,17.40
2023-07-29T20:25:36.329Z,17.32
2023-07-29T20:28:04.127Z,17.26
2023-07-29T20:30:32.085Z,17.19
2023-07-29T20:33:00.056Z,17.18
2023-07-29T20:35:27.829Z,17.15
2023-07-29T20:37:55.626Z,17.12
2023-07-29T20:40:23.412Z,17.11
2023-07-29T20:42:51.055Z,17.08
2023-07-29T20:45:18.750Z,17.08
2023-07-29T20:47:46.480Z,17.09
2023-07-29T20:50:14.441Z,17.09
2023-07-29T20:52:42.054Z,17.08
2023-07-29T20:55:10.038Z,17.09
2023-07-29T20:57:37.750Z,17.09
2023-07-29T21:00:06.526Z,17.11
2023-07-29T21:02:35.578Z,17.11
2023-07-29T21:05:05.493Z,17.08
2023-07-29T21:07:33.337Z,17.12
2023-07-29T21:10:02.936Z,17.12
2023-07-29T21:12:33.285Z,17.15
2023-07-29T21:15:04.127Z,17.14
2023-07-29T21:17:32.365Z,17.16
2023-07-29T21:20:01.594Z,17.16
2023-07-29T21:22:31.577Z,17.19
2023-07-29T21:24:59.456Z,17.19
2023-07-29T21:27:27.224Z,17.23
2023-07-29T21:29:55.273Z,17.23
2023-07-29T21:32:23.061Z,17.26
2023-07-29T21:34:50.844Z,17.25
2023-07-29T21:37:29.591Z,17.28
2023-07-29T21:40:04.613Z,17.29
2023-07-29T21:42:34.069Z,17.30
2023-07-29T21:45:02.115Z,17.32
2023-07-29T21:47:33.673Z,17.33
2023-07-29T21:50:01.330Z,17.33
2023-07-29T21:52:29.920Z,17.30
2023-07-29T21:54:57.779Z,17.22
2023-07-29T21:57:25.720Z,17.23
2023-07-29T21:59:53.827Z,17.19
2023-07-29T22:02:21.622Z,17.14
2023-07-29T22:04:49.600Z,17.04
2023-07-29T22:07:17.482Z,16.98
2023-07-29T22:09:45.069Z,16.88
2023-07-29T22:12:12.741Z,16.88
2023-07-29T22:14:40.400Z,16.88
2023-07-29T22:17:08.112Z,16.82
2023-07-29T22:19:35.766Z,16.84
2023-07-29T22:22:04.060Z,16.88
2023-07-29T22:24:31.720Z,16.88
2023-07-29T22:27:01.250Z,16.94
2023-07-29T22:29:28.830Z,16.94
2023-07-29T22:31:56.689Z,16.91
2023-07-29T22:34:24.528Z,16.88
2023-07-29T22:36:52.343Z,16.88
2023-07-29T22:39:20.891Z,16.87
2023-07-29T22:41:48.485Z,16.88
2023-07-29T22:44:16.023Z,16.87
2023-07-29T22:46:47.109Z,16.87
2023-07-29T22:49:14.738Z,16.85
2023-07-29T22:51:42.328Z,16.87
2023-07-29T22:54:09.901Z,16.85
2023-07-29T22:56:37.915Z,16.81
2023-07-29T22:59:06.083Z,16.78
2023-07-29T23:01:33.881Z,16.77
2023-07-29T23:04:01.692Z,16.70
2023-07-29T23:06:30.604Z,16.68
2023-07-29T23:08:58.185Z,16.61
2023-07-29T23:11:25.871Z,16.64
2023-07-29T23:13:53.532Z,16.57
2023-07-29T23:16:21.405Z,16.60
2023-07-29T23:18:49.092Z,16.59
2023-07-29T23:21:16.641Z,16.59
2023-07-29T23:23:44.993Z,16.54
2023-07-29T23:26:12.772Z,16.54
2023-07-29T23:28:41.590Z,16.50
2023-07-29T23:31:09.254Z,16.50
2023-07-29T23:33:36.912Z,16.50
2023-07-29T23:36:04.772Z,16.50
2023-07-29T23:38:32.436Z,16.56
2023-07-29T23:41:00.117Z,16.63
2023-07-29T23:43:27.736Z,16.67
2023-07-29T23:45:55.800Z,16.68
2023-07-29T23:48:23.599Z,16.68
2023-07-29T23:50:51.575Z,16.71
2023-07-29T23:53:19.271Z,16.70
2023-07-29T23:55:46.944Z,16.70
2023-07-29T23:58:15.198Z,16.75
